createdAt,value
2024-04-02T00:05:51.035Z,24.70000076
2024-04-02T00:20:50.703Z,24.79999924
2024-04-02T00:35:50.708Z,24.5
2024-04-02T00:50:50.832Z,24.60000038
2024-04-02T01:05:50.898Z,24.60000038
2024-04-02T01:20:50.902Z,24.60000038
2024-04-02T01:35:50.831Z,25.20000076
2024-04-02T01:50:51.032Z,25.39999962
2024-04-02T02:05:50.920Z,26.10000038
2024-04-02T02:20:50.925Z,26.89999962
2024-04-02T02:35:50.988Z,27.10000038
2024-04-02T02:50:50.840Z,27.20000076
2024-04-02T03:05:50.873Z,28.60000038
2024-04-02T03:20:50.793Z,29
2024-04-02T03:35:50.942Z,30.10000038
2024-04-02T03:50:50.939Z,29.5
2024-04-02T04:05:50.906Z,29.5
2024-04-02T04:20:51.026Z,29.60000038
2024-04-02T04:35:50.849Z,30.70000076
2024-04-02T04:50:51.027Z,30.29999924
2024-04-02T05:05:50.834Z,30.60000038
2024-04-02T05:20:51.052Z,30.10000038
2024-04-02T05:35:51.070Z,30.70000076
2024-04-02T05:50:50.979Z,31.29999924
2024-04-02T06:05:51.100Z,31.5
2024-04-02T06:20:51.075Z,31.5
2024-04-02T06:35:51.187Z,32.70000076
2024-04-02T06:50:51.122Z,32.29999924
2024-04-02T07:05:51.215Z,32.90000153
2024-04-02T07:20:51.093Z,33.20000076
2024-04-02T07:35:51.194Z,33.90000153
2024-04-02T07:50:52.102Z,34
2024-04-02T08:05:51.014Z,33.5
2024-04-02T08:20:51.208Z,33.79999924
2024-04-02T08:35:51.303Z,33.90000153
2024-04-02T08:50:51.629Z,34.09999847
2024-04-02T09:05:50.998Z,34.29999924
2024-04-02T09:20:51.215Z,34.29999924
2024-04-02T09:35:51.084Z,34.29999924
2024-04-02T09:50:51.211Z,34.5
2024-04-02T10:05:51.330Z,34.79999924
2024-04-02T10:20:51.248Z,34.5
2024-04-02T10:35:51.130Z,34.59999847
2024-04-02T10:50:51.247Z,34.79999924
2024-04-02T11:05:51.249Z,34.70000076
2024-04-02T11:20:51.094Z,34.40000153
2024-04-02T11:35:51.409Z,34.40000153
2024-04-02T11:50:51.361Z,34.29999924
2024-04-02T12:05:51.416Z,34
2024-04-02T12:20:51.122Z,33.90000153
2024-04-02T12:35:51.270Z,33.5
2024-04-02T12:50:51.235Z,33
2024-04-02T13:05:51.290Z,32.5
2024-04-02T13:20:51.330Z,32
2024-04-02T13:35:51.152Z,31.79999924
2024-04-02T13:50:51.288Z,31.70000076
2024-04-02T14:05:51.241Z,31.29999924
2024-04-02T14:20:51.300Z,31.10000038
2024-04-02T14:35:51.182Z,31
2024-04-02T14:50:51.364Z,31
2024-04-02T15:05:51.283Z,30.79999924
2024-04-02T15:20:51.305Z,30.5
2024-04-02T15:35:51.193Z,30.20000076
2024-04-02T15:50:51.218Z,29.89999962
2024-04-02T16:05:51.398Z,29.70000076
2024-04-02T16:20:51.313Z,29.5
2024-04-02T16:35:51.473Z,29.5
2024-04-02T16:50:51.325Z,29.29999924
2024-04-02T17:05:51.489Z,29.20000076
2024-04-02T17:20:51.490Z,29
2024-04-02T17:35:51.375Z,28.5
2024-04-02T17:50:51.310Z,27.89999962
2024-04-02T18:05:51.466Z,27.60000038
2024-04-02T18:20:51.477Z,27.39999962
2024-04-02T18:35:51.514Z,27.89999962
2024-04-02T18:50:51.369Z,27.29999924
2024-04-02T19:05:51.409Z,27
2024-04-02T19:20:51.580Z,26.79999924
2024-04-02T19:35:51.407Z,26.39999962
2024-04-02T19:50:51.445Z,26.29999924
2024-04-02T20:05:51.637Z,26.29999924
2024-04-02T20:20:51.395Z,26.60000038
2024-04-02T20:35:51.420Z,26.5
2024-04-02T20:50:51.398Z,26.29999924
2024-04-02T21:05:51.430Z,26.20000076
2024-04-02T21:20:51.540Z,25.60000038
2024-04-02T21:35:51.431Z,24.89999962
2024-04-02T21:50:51.506Z,24.79999924
2024-04-02T22:05:51.447Z,24.60000038
2024-04-02T22:20:51.624Z,24.39999962
2024-04-02T22:35:51.506Z,24.60000038
2024-04-02T22:50:51.681Z,24.5
2024-04-02T23:05:51.602Z,24.29999924
2024-04-02T23:20:51.542Z,24.10000038
2024-04-02T23:35:51.602Z,24.29999924
2024-04-02T23:50:51.624Z,24.5
